createdAt,value
2019-01-20T00:00:20.462Z,10.60
2019-01-20T00:05:46.076Z,10.00
2019-01-20T00:08:17.615Z,10.37
2019-01-20T00:10:56.465Z,10.90
2019-01-20T00:13:29.454Z,10.07
2019-01-20T00:16:12.616Z,10.40
2019-01-20T00:18:47.184Z,9.40
2019-01-20T00:21:19.528Z,10.17
2019-01-20T00:23:58.021Z,10.37
2019-01-20T00:26:35.147Z,9.67
2019-01-20T00:29:10.513Z,10.70
2019-01-20T00:31:43.143Z,9.93
2019-01-20T00:34:17.786Z,9.27
2019-01-20T00:37:00.716Z,9.33
2019-01-20T00:39:32.270Z,8.57
2019-01-20T00:42:04.168Z,8.67
2019-01-20T00:44:39.578Z,8.63
2019-01-20T00:47:11.737Z,8.47
2019-01-20T00:49:44.005Z,8.20
2019-01-20T00:52:16.095Z,8.93
2019-01-20T00:54:47.510Z,8.97
2019-01-20T00:57:20.237Z,8.70
2019-01-20T00:59:55.764Z,7.90
2019-01-20T01:02:27.122Z,8.77
2019-01-20T01:05:03.556Z,7.83
2019-01-20T01:07:36.234Z,9.47
2019-01-20T01:10:08.484Z,7.87
2019-01-20T01:12:40.353Z,8.60
2019-01-20T01:15:12.570Z,7.97
2019-01-20T01:17:43.826Z,9.10
2019-01-20T01:20:16.865Z,10.37
2019-01-20T01:22:48.352Z,8.57
2019-01-20T01:25:20.092Z,8.20
2019-01-20T01:27:51.390Z,8.20
2019-01-20T01:30:27.711Z,9.53
2019-01-20T01:32:59.023Z,9.40
2019-01-20T01:35:30.275Z,10.10
2019-01-20T01:38:01.538Z,9.50
2019-01-20T01:40:32.754Z,9.43
2019-01-20T01:43:04.050Z,8.03
2019-01-20T01:45:35.339Z,7.50
2019-01-20T01:48:06.695Z,7.70
2019-01-20T01:50:37.961Z,8.00
2019-01-20T01:53:09.121Z,8.87
2019-01-20T01:55:40.429Z,8.60
2019-01-20T01:58:11.607Z,8.20
2019-01-20T02:00:42.913Z,7.50
2019-01-20T02:03:14.173Z,8.43
2019-01-20T02:05:45.390Z,8.77
2019-01-20T02:08:16.621Z,9.20
2019-01-20T02:10:48.034Z,8.27
2019-01-20T02:13:19.266Z,7.73
2019-01-20T02:15:50.661Z,8.37
2019-01-20T02:18:21.998Z,8.10
2019-01-20T02:20:53.280Z,7.20
2019-01-20T02:23:24.522Z,8.07
2019-01-20T02:25:55.866Z,8.57
2019-01-20T02:28:27.117Z,7.13
2019-01-20T02:30:58.473Z,7.50
2019-01-20T02:33:29.774Z,7.83
2019-01-20T02:36:01.015Z,8.50
2019-01-20T02:38:32.316Z,8.00
2019-01-20T02:41:03.578Z,9.23
2019-01-20T02:43:34.908Z,7.13
2019-01-20T02:46:06.249Z,7.67
2019-01-20T02:48:37.549Z,6.97
2019-01-20T02:51:08.793Z,7.00
2019-01-20T02:53:40.075Z,7.33
2019-01-20T02:56:11.421Z,7.83
2019-01-20T02:58:42.695Z,7.47
2019-01-20T03:01:13.947Z,8.30
2019-01-20T03:03:45.201Z,7.80
2019-01-20T03:06:16.481Z,7.30
2019-01-20T03:08:47.785Z,8.80
2019-01-20T03:11:19.020Z,8.47
2019-01-20T03:13:50.311Z,8.13
2019-01-20T03:16:21.615Z,7.37
2019-01-20T03:18:53.254Z,8.07
2019-01-20T03:21:24.598Z,7.63
2019-01-20T03:23:55.799Z,6.90
2019-01-20T03:26:27.074Z,8.43
2019-01-20T03:28:58.361Z,8.70
2019-01-20T03:31:29.607Z,7.40
2019-01-20T03:34:00.989Z,7.43
2019-01-20T03:36:32.255Z,8.37
2019-01-20T03:39:03.630Z,8.70
2019-01-20T03:41:34.898Z,7.60
2019-01-20T03:44:06.739Z,7.97
2019-01-20T03:46:38.017Z,6.93
2019-01-20T03:49:09.285Z,8.97
2019-01-20T03:51:40.479Z,8.37
2019-01-20T03:54:11.858Z,6.87
2019-01-20T03:56:43.507Z,7.80
2019-01-20T03:59:14.781Z,8.63
2019-01-20T04:01:46.172Z,7.87
2019-01-20T04:04:17.420Z,6.80
2019-01-20T04:06:48.638Z,7.50
2019-01-20T04:09:20.011Z,9.00
2019-01-20T04:11:51.262Z,8.87
2019-01-20T04:14:22.526Z,8.20
2019-01-20T04:16:53.764Z,8.20
2019-01-20T04:19:25.110Z,8.03
2019-01-20T04:21:56.342Z,7.10
2019-01-20T04:24:28.153Z,8.90
2019-01-20T04:26:59.399Z,6.93
2019-01-20T04:29:30.664Z,7.90
2019-01-20T04:32:01.913Z,8.07
2019-01-20T04:34:33.136Z,7.33
2019-01-20T04:37:04.420Z,8.67
2019-01-20T04:39:35.670Z,6.40
2019-01-20T04:42:07.089Z,7.70
2019-01-20T04:44:38.383Z,7.63
2019-01-20T04:47:09.683Z,8.20
2019-01-20T04:49:40.991Z,8.60
2019-01-20T04:52:12.347Z,7.37
2019-01-20T04:54:43.625Z,7.80
2019-01-20T04:57:16.631Z,7.63
2019-01-20T04:59:47.907Z,8.57
2019-01-20T05:02:19.220Z,8.87
2019-01-20T05:04:50.365Z,8.20
2019-01-20T05:07:21.605Z,7.30
2019-01-20T05:09:52.888Z,7.10
2019-01-20T05:12:24.140Z,8.20
2019-01-20T05:14:55.454Z,7.90
2019-01-20T05:17:26.694Z,10.93
2019-01-20T05:19:57.972Z,7.10
2019-01-20T05:22:29.211Z,8.57
2019-01-20T05:25:00.573Z,8.23
2019-01-20T05:27:31.850Z,8.75
2019-01-20T05:30:03.185Z,7.03
2019-01-20T05:32:34.465Z,8.20
2019-01-20T05:35:06.219Z,7.20
2019-01-20T05:37:37.493Z,6.90
2019-01-20T05:40:10.843Z,6.85
2019-01-20T05:42:46.450Z,8.33
2019-01-20T05:45:18.568Z,9.40
2019-01-20T05:47:49.905Z,8.15
2019-01-20T05:50:21.407Z,7.93
2019-01-20T05:52:52.677Z,9.40
2019-01-20T05:55:23.932Z,9.03
2019-01-20T05:58:17.031Z,8.33
2019-01-20T06:00:48.342Z,8.85
2019-01-20T06:03:19.614Z,8.25
2019-01-20T06:05:50.807Z,8.70
2019-01-20T06:08:22.116Z,8.38
2019-01-20T06:10:53.380Z,9.28
2019-01-20T06:13:24.692Z,10.68
2019-01-20T06:15:55.941Z,11.22
2019-01-20T06:18:27.234Z,9.85
2019-01-20T06:20:58.633Z,11.12
2019-01-20T06:23:29.904Z,11.80
2019-01-20T06:26:01.221Z,12.20
2019-01-20T06:28:32.485Z,9.80
2019-01-20T06:31:03.773Z,10.97
2019-01-20T06:33:35.129Z,11.80
2019-01-20T06:36:06.601Z,10.78
2019-01-20T06:38:37.896Z,9.75
2019-01-20T06:41:09.281Z,11.33
2019-01-20T06:43:40.534Z,9.80
2019-01-20T06:46:11.861Z,10.08
2019-01-20T06:48:43.138Z,10.78
2019-01-20T06:51:14.434Z,9.23
2019-01-20T06:53:45.726Z,8.83
2019-01-20T06:56:17.163Z,10.35
2019-01-20T06:58:48.419Z,8.83
2019-01-20T07:01:19.687Z,8.50
2019-01-20T07:03:51.008Z,8.78
2019-01-20T07:06:22.278Z,10.03
2019-01-20T07:08:53.548Z,10.30
2019-01-20T07:11:24.911Z,9.50
2019-01-20T07:14:12.032Z,9.63
2019-01-20T07:16:45.290Z,9.40
2019-01-20T07:19:17.675Z,10.30
2019-01-20T07:21:51.483Z,7.58
2019-01-20T07:24:24.313Z,8.40
2019-01-20T07:26:56.764Z,8.05
2019-01-20T07:29:32.789Z,8.65
2019-01-20T07:32:06.788Z,10.00
2019-01-20T07:34:40.319Z,10.68
2019-01-20T07:37:15.945Z,9.53
2019-01-20T07:39:47.894Z,10.35
2019-01-20T07:42:19.754Z,9.63
2019-01-20T07:44:51.624Z,9.55
2019-01-20T07:47:24.695Z,9.35
2019-01-20T07:49:56.590Z,9.00
2019-01-20T07:52:27.917Z,10.90
2019-01-20T07:55:00.846Z,10.18
2019-01-20T07:57:33.594Z,11.10
2019-01-20T08:00:07.654Z,10.23
2019-01-20T08:02:39.875Z,9.53
2019-01-20T08:05:15.000Z,10.25
2019-01-20T08:07:47.801Z,10.25
2019-01-20T08:10:26.226Z,11.28
2019-01-20T08:13:00.389Z,12.10
2019-01-20T08:15:34.272Z,11.20
2019-01-20T08:18:07.032Z,11.90
2019-01-20T08:20:43.080Z,10.85
2019-01-20T08:23:14.518Z,11.50
2019-01-20T08:25:45.733Z,11.00
2019-01-20T08:28:16.950Z,10.80
2019-01-20T08:30:48.200Z,11.77
2019-01-20T08:33:19.456Z,11.37
2019-01-20T08:35:50.772Z,11.33
2019-01-20T08:38:21.930Z,14.33
2019-01-20T08:40:53.195Z,13.40
2019-01-20T08:43:31.550Z,13.40
2019-01-20T08:46:29.634Z,12.63
2019-01-20T08:49:01.025Z,11.83
2019-01-20T08:51:33.441Z,12.63
2019-01-20T08:54:04.725Z,11.70
2019-01-20T08:56:36.075Z,9.87
2019-01-20T08:59:07.430Z,9.30
2019-01-20T09:01:38.848Z,9.53
2019-01-20T09:04:10.132Z,10.70
2019-01-20T09:06:41.484Z,9.60
2019-01-20T09:09:12.716Z,9.60
2019-01-20T09:11:44.025Z,9.23
2019-01-20T09:14:15.679Z,8.80
2019-01-20T09:16:47.006Z,8.93
2019-01-20T09:19:18.279Z,9.20
2019-01-20T09:21:49.528Z,10.90
2019-01-20T09:24:20.870Z,10.30
2019-01-20T09:26:52.111Z,8.67
2019-01-20T09:29:23.381Z,10.43
2019-01-20T09:31:58.517Z,10.03
2019-01-20T09:34:29.832Z,8.30
2019-01-20T09:37:01.111Z,9.60
2019-01-20T09:39:32.339Z,8.10
2019-01-20T09:42:03.674Z,7.33
2019-01-20T09:44:34.933Z,8.80
2019-01-20T09:47:06.344Z,8.43
2019-01-20T09:49:37.573Z,9.37
2019-01-20T09:52:08.873Z,10.37
2019-01-20T09:54:40.110Z,8.93
2019-01-20T09:57:11.439Z,8.53
2019-01-20T09:59:42.712Z,8.73
2019-01-20T10:02:13.968Z,9.93
2019-01-20T10:04:45.187Z,8.57
2019-01-20T10:07:16.409Z,8.40
2019-01-20T10:09:47.766Z,8.73
2019-01-20T10:12:19.019Z,8.43
2019-01-20T10:14:50.279Z,10.60
2019-01-20T10:17:21.490Z,8.80
2019-01-20T10:19:52.749Z,8.67
2019-01-20T10:22:23.917Z,7.97
2019-01-20T10:24:55.245Z,8.53
2019-01-20T10:27:26.490Z,7.43
2019-01-20T10:29:57.780Z,8.60
2019-01-20T10:32:29.170Z,8.53
2019-01-20T10:35:01.174Z,10.83
2019-01-20T10:37:34.101Z,8.70
2019-01-20T10:40:06.022Z,9.20
2019-01-20T10:42:37.295Z,9.80
2019-01-20T10:45:10.251Z,8.20
2019-01-20T10:47:41.604Z,8.90
2019-01-20T10:50:13.885Z,9.00
2019-01-20T10:52:45.415Z,9.07
2019-01-20T10:55:16.655Z,10.20
2019-01-20T10:57:48.028Z,8.97
2019-01-20T11:00:25.911Z,8.03
2019-01-20T11:02:57.197Z,9.87
2019-01-20T11:05:30.475Z,9.73
2019-01-20T11:08:01.604Z,8.50
2019-01-20T11:10:33.068Z,8.20
2019-01-20T11:13:04.411Z,8.60
2019-01-20T11:15:36.087Z,8.60
2019-01-20T11:18:14.607Z,8.57
2019-01-20T11:20:50.275Z,8.40
2019-01-20T11:23:23.316Z,8.27
2019-01-20T11:25:54.597Z,7.40
2019-01-20T11:28:26.241Z,6.43
2019-01-20T11:30:57.569Z,7.37
2019-01-20T11:33:28.859Z,8.27
2019-01-20T11:36:00.114Z,8.87
2019-01-20T11:38:31.529Z,8.10
2019-01-20T11:41:02.847Z,7.50
2019-01-20T11:43:34.135Z,8.40
2019-01-20T11:46:05.462Z,7.57
2019-01-20T11:48:36.710Z,8.40
2019-01-20T11:51:08.017Z,8.17
2019-01-20T11:53:58.237Z,7.43
2019-01-20T11:56:29.497Z,7.77
2019-01-20T11:59:00.780Z,8.20
2019-01-20T12:01:32.014Z,6.00
2019-01-20T12:04:03.238Z,7.73
2019-01-20T12:06:34.423Z,7.13
2019-01-20T12:09:08.548Z,7.43
2019-01-20T12:11:39.873Z,7.50
2019-01-20T12:14:11.263Z,6.47
2019-01-20T12:16:42.539Z,8.00
2019-01-20T12:19:13.829Z,6.97
2019-01-20T12:21:45.022Z,7.00
2019-01-20T12:24:16.318Z,7.07
2019-01-20T12:26:47.590Z,5.17
2019-01-20T12:29:18.835Z,5.43
2019-01-20T12:31:50.091Z,5.57
2019-01-20T12:34:21.360Z,7.00
2019-01-20T12:36:52.581Z,4.97
2019-01-20T12:39:23.887Z,6.90
2019-01-20T12:41:55.166Z,5.50
2019-01-20T12:44:31.523Z,5.80
2019-01-20T12:47:01.866Z,5.47
2019-01-20T12:49:33.164Z,6.73
2019-01-20T12:52:04.455Z,6.00
2019-01-20T12:54:35.674Z,5.70
2019-01-20T12:57:06.953Z,7.60
2019-01-20T12:59:38.380Z,7.57
2019-01-20T13:02:09.688Z,5.97
2019-01-20T13:04:40.841Z,6.30
2019-01-20T13:07:12.236Z,6.30
2019-01-20T13:09:43.642Z,7.80
2019-01-20T13:12:14.950Z,6.60
2019-01-20T13:14:46.193Z,6.20
2019-01-20T13:17:17.440Z,7.83
2019-01-20T13:19:48.729Z,7.17
2019-01-20T13:22:19.870Z,7.80
2019-01-20T13:24:51.141Z,6.90
2019-01-20T13:27:22.403Z,6.90
2019-01-20T13:29:53.752Z,7.37
2019-01-20T13:32:25.035Z,8.70
2019-01-20T13:34:56.286Z,7.10
2019-01-20T13:37:27.510Z,6.70
2019-01-20T13:39:58.766Z,6.10
2019-01-20T13:42:30.093Z,6.63
2019-01-20T13:45:01.271Z,6.10
2019-01-20T13:47:32.554Z,6.70
2019-01-20T13:50:03.769Z,7.10
2019-01-20T13:52:34.991Z,5.80
2019-01-20T13:55:07.627Z,6.80
2019-01-20T13:57:38.893Z,6.83
2019-01-20T14:00:18.698Z,6.77
2019-01-20T14:02:50.047Z,6.20
2019-01-20T14:05:21.458Z,8.10
2019-01-20T14:07:52.810Z,8.60
2019-01-20T14:10:24.783Z,7.20
2019-01-20T14:15:24.625Z,7.60
2019-01-20T14:17:55.886Z,7.80
2019-01-20T14:20:27.699Z,13.17
2019-01-20T14:22:59.162Z,8.20
2019-01-20T14:25:30.631Z,8.10
2019-01-20T14:28:02.046Z,9.43
2019-01-20T14:30:33.867Z,9.67
2019-01-20T14:33:05.305Z,8.30
2019-01-20T14:35:36.545Z,7.53
2019-01-20T14:38:07.982Z,7.50
2019-01-20T14:40:39.257Z,7.00
2019-01-20T14:43:10.541Z,8.17
2019-01-20T14:45:41.784Z,9.63
2019-01-20T14:48:13.019Z,8.87
2019-01-20T14:50:44.255Z,8.10
2019-01-20T14:53:15.682Z,8.20
2019-01-20T14:55:46.917Z,9.20
2019-01-20T14:58:18.087Z,8.37
2019-01-20T15:00:49.400Z,9.10
2019-01-20T15:03:20.631Z,9.87
2019-01-20T15:05:51.813Z,8.07
2019-01-20T15:08:23.150Z,8.77
2019-01-20T15:10:54.585Z,8.97
2019-01-20T15:13:26.006Z,9.10
2019-01-20T15:15:57.494Z,8.90
2019-01-20T15:18:28.765Z,7.40
2019-01-20T15:21:00.636Z,9.40
2019-01-20T15:23:31.802Z,8.70
2019-01-20T15:26:02.963Z,8.93
2019-01-20T15:28:34.443Z,8.60
2019-01-20T15:31:05.739Z,9.20
2019-01-20T15:33:37.113Z,8.67
2019-01-20T15:36:09.868Z,10.27
2019-01-20T15:38:41.222Z,10.70
2019-01-20T15:41:12.531Z,9.30
2019-01-20T15:43:43.770Z,9.60
2019-01-20T15:46:14.962Z,9.73
2019-01-20T15:48:46.284Z,9.90
2019-01-20T15:51:17.644Z,14.30
2019-01-20T15:53:48.828Z,10.43
2019-01-20T15:56:20.194Z,8.97
2019-01-20T15:58:54.716Z,9.33
2019-01-20T16:01:25.908Z,9.47
2019-01-20T16:03:57.152Z,8.93
2019-01-20T16:06:28.416Z,10.40
2019-01-20T16:08:59.676Z,16.90
2019-01-20T16:11:31.393Z,22.27
2019-01-20T16:14:02.891Z,16.70
2019-01-20T16:16:34.352Z,10.93
2019-01-20T16:19:05.638Z,11.67
2019-01-20T16:21:36.844Z,22.90
2019-01-20T16:24:08.092Z,11.63
2019-01-20T16:26:39.676Z,12.13
2019-01-20T16:29:10.901Z,11.97
2019-01-20T16:31:42.137Z,12.97
2019-01-20T16:34:13.502Z,15.23
2019-01-20T16:36:44.947Z,17.03
2019-01-20T16:39:16.219Z,18.13
2019-01-20T16:41:47.620Z,15.43
2019-01-20T16:44:18.863Z,14.47
2019-01-20T16:46:50.125Z,14.03
2019-01-20T16:49:21.398Z,13.20
2019-01-20T16:51:52.628Z,13.63
2019-01-20T16:54:23.805Z,27.97
2019-01-20T16:56:55.389Z,23.30
2019-01-20T16:59:26.666Z,21.90
2019-01-20T17:01:58.074Z,25.40
2019-01-20T17:04:29.378Z,21.67
2019-01-20T17:07:00.623Z,19.40
2019-01-20T17:09:31.896Z,14.40
2019-01-20T17:12:06.076Z,13.50
2019-01-20T17:14:39.623Z,15.30
2019-01-20T17:17:10.930Z,12.83
2019-01-20T17:19:42.060Z,12.53
2019-01-20T17:22:13.298Z,12.50
2019-01-20T17:24:44.854Z,18.50
2019-01-20T17:27:16.179Z,16.10
2019-01-20T17:30:04.974Z,14.63
2019-01-20T17:32:36.363Z,16.40
2019-01-20T17:35:09.923Z,13.93
2019-01-20T17:37:41.421Z,14.27
2019-01-20T17:40:16.784Z,11.80
2019-01-20T17:42:59.599Z,14.00
2019-01-20T17:45:46.940Z,12.57
2019-01-20T17:48:13.337Z,12.37
2019-01-20T17:50:46.309Z,11.60
2019-01-20T17:53:18.058Z,9.80
2019-01-20T17:55:49.360Z,10.70
2019-01-20T17:58:20.682Z,12.67
2019-01-20T18:00:58.898Z,9.50
2019-01-20T18:03:30.220Z,12.70
2019-01-20T18:06:01.667Z,10.63
2019-01-20T18:08:32.993Z,11.93
2019-01-20T18:11:04.323Z,11.90
2019-01-20T18:13:35.641Z,13.10
2019-01-20T18:16:07.217Z,12.13
2019-01-20T18:18:38.583Z,10.53
2019-01-20T18:21:10.031Z,11.10
2019-01-20T18:23:48.504Z,9.50
2019-01-20T18:26:19.968Z,12.63
2019-01-20T18:28:51.296Z,12.60
2019-01-20T18:31:22.593Z,11.93
2019-01-20T18:33:54.298Z,12.77
2019-01-20T18:36:25.794Z,9.80
2019-01-20T18:38:57.160Z,13.03
2019-01-20T18:41:28.448Z,12.87
2019-01-20T18:43:59.778Z,21.23
2019-01-20T18:46:31.091Z,14.27
2019-01-20T18:49:02.435Z,11.80
2019-01-20T18:53:59.881Z,11.40
2019-01-20T18:56:31.456Z,12.03
2019-01-20T18:59:02.804Z,13.10
2019-01-20T19:01:34.253Z,18.27
2019-01-20T19:04:08.425Z,14.83
2019-01-20T19:06:39.725Z,14.33
2019-01-20T19:09:11.388Z,13.97
2019-01-20T19:11:42.673Z,14.40
2019-01-20T19:14:14.015Z,15.30
2019-01-20T19:16:45.378Z,13.13
2019-01-20T19:19:16.735Z,11.87
2019-01-20T19:21:48.041Z,11.00
2019-01-20T19:24:19.331Z,14.57
2019-01-20T19:26:50.708Z,13.90
2019-01-20T19:29:22.086Z,14.60
2019-01-20T19:31:53.487Z,12.80
2019-01-20T19:34:24.809Z,12.20
2019-01-20T19:36:56.130Z,13.67
2019-01-20T19:39:27.460Z,14.90
2019-01-20T19:41:58.815Z,14.57
2019-01-20T19:44:30.222Z,14.00
2019-01-20T19:47:01.534Z,15.30
2019-01-20T19:49:32.922Z,15.83
2019-01-20T19:52:04.314Z,14.00
2019-01-20T19:54:35.582Z,14.07
2019-01-20T19:57:06.985Z,13.40
2019-01-20T19:59:38.320Z,15.10
2019-01-20T20:02:09.658Z,12.93
2019-01-20T20:04:40.928Z,12.30
2019-01-20T20:07:12.313Z,11.53
2019-01-20T20:09:43.613Z,10.00
2019-01-20T20:12:14.899Z,11.80
2019-01-20T20:14:46.165Z,10.37
2019-01-20T20:17:17.449Z,13.10
2019-01-20T20:19:48.750Z,12.00
2019-01-20T20:22:20.046Z,10.87
2019-01-20T20:24:51.377Z,9.53
2019-01-20T20:27:22.699Z,10.60
2019-01-20T20:29:53.993Z,10.20
2019-01-20T20:32:25.236Z,12.50
2019-01-20T20:34:56.646Z,11.20
2019-01-20T20:37:27.861Z,10.30
2019-01-20T20:39:59.103Z,9.20
2019-01-20T20:42:30.373Z,10.93
2019-01-20T20:45:01.672Z,11.57
2019-01-20T20:47:32.993Z,12.67
2019-01-20T20:50:04.439Z,10.50
2019-01-20T20:52:35.836Z,11.53
2019-01-20T20:55:08.122Z,11.20
2019-01-20T20:57:39.541Z,11.30
2019-01-20T21:00:44.868Z,13.80
2019-01-20T21:03:23.678Z,11.93
2019-01-20T21:05:55.217Z,12.83
2019-01-20T21:08:27.379Z,11.83
2019-01-20T21:10:59.040Z,12.87
2019-01-20T21:13:34.139Z,12.43
2019-01-20T21:16:06.525Z,12.07
2019-01-20T21:18:39.781Z,12.50
2019-01-20T21:21:12.267Z,12.23
2019-01-20T21:23:47.819Z,12.97
2019-01-20T21:26:32.712Z,13.10
2019-01-20T21:29:32.631Z,12.67
2019-01-20T21:32:39.473Z,12.20
2019-01-20T21:35:33.541Z,13.17
2019-01-20T21:38:12.995Z,13.90
2019-01-20T21:40:51.820Z,14.10
2019-01-20T21:43:25.701Z,12.53
2019-01-20T21:45:57.306Z,13.83
2019-01-20T21:48:28.777Z,14.23
2019-01-20T21:51:00.208Z,14.93
2019-01-20T21:53:31.727Z,13.70
2019-01-20T21:56:03.189Z,14.63
2019-01-20T21:58:34.663Z,15.00
2019-01-20T22:01:06.883Z,13.83
2019-01-20T22:03:38.596Z,14.27
2019-01-20T22:06:10.091Z,13.00
2019-01-20T22:08:41.805Z,14.10
2019-01-20T22:11:13.612Z,13.17
2019-01-20T22:13:45.137Z,14.67
2019-01-20T22:16:16.568Z,14.47
2019-01-20T22:18:48.912Z,13.73
2019-01-20T22:21:21.417Z,15.50
2019-01-20T22:23:52.712Z,14.70
2019-01-20T22:26:24.068Z,15.60
2019-01-20T22:28:55.445Z,15.90
2019-01-20T22:31:26.762Z,16.60
2019-01-20T22:33:58.234Z,14.23
2019-01-20T22:36:29.643Z,16.40
2019-01-20T22:39:00.968Z,15.90
2019-01-20T22:41:32.355Z,16.40
2019-01-20T22:44:03.636Z,16.03
2019-01-20T22:46:35.065Z,14.43
2019-01-20T22:49:06.375Z,14.03
2019-01-20T22:51:37.707Z,15.30
2019-01-20T22:54:09.020Z,15.33
2019-01-20T22:56:40.376Z,15.80
2019-01-20T22:59:11.752Z,16.63
2019-01-20T23:01:43.264Z,13.90
2019-01-20T23:04:14.602Z,16.47
2019-01-20T23:06:45.984Z,16.30
2019-01-20T23:09:17.301Z,15.90
2019-01-20T23:11:48.611Z,17.70
2019-01-20T23:14:19.937Z,18.23
2019-01-20T23:16:51.206Z,16.07
2019-01-20T23:19:22.515Z,16.87
2019-01-20T23:21:53.757Z,15.70
2019-01-20T23:24:25.026Z,17.07
2019-01-20T23:26:56.338Z,15.83
2019-01-20T23:29:27.623Z,17.57
2019-01-20T23:31:58.952Z,15.57
2019-01-20T23:34:30.349Z,16.50
2019-01-20T23:37:01.867Z,14.97
2019-01-20T23:39:33.264Z,17.40
2019-01-20T23:42:04.659Z,15.73
2019-01-20T23:44:36.386Z,15.67
2019-01-20T23:47:14.916Z,16.40
2019-01-20T23:49:41.150Z,17.00
2019-01-20T23:52:13.629Z,16.87
2019-01-20T23:54:45.341Z,15.50
2019-01-20T23:57:17.004Z,16.00
2019-01-20T23:59:48.553Z,16.83
